createdAt,value
2022-09-29T00:00:39.726Z,89.71
2022-09-29T00:03:07.318Z,89.84
2022-09-29T00:05:36.105Z,89.98
2022-09-29T00:08:03.875Z,90.07
2022-09-29T00:10:30.993Z,89.99
2022-09-29T00:12:58.096Z,89.94
2022-09-29T00:15:25.196Z,90.09
2022-09-29T00:18:12.774Z,90.06
2022-09-29T00:20:39.683Z,90.24
2022-09-29T00:23:06.892Z,90.13
2022-09-29T00:25:34.055Z,89.86
2022-09-29T00:28:01.395Z,89.71
2022-09-29T00:30:28.754Z,89.79
2022-09-29T00:32:55.977Z,89.72
2022-09-29T00:35:23.143Z,89.67
2022-09-29T00:37:50.344Z,89.88
2022-09-29T00:40:17.728Z,90.00
2022-09-29T00:42:45.033Z,90.39
2022-09-29T00:45:17.319Z,90.43
2022-09-29T00:47:48.295Z,90.58
2022-09-29T00:50:23.055Z,90.47
2022-09-29T00:52:59.715Z,90.76
2022-09-29T00:55:39.632Z,90.47
2022-09-29T00:58:23.025Z,90.17
2022-09-29T01:00:50.554Z,90.52
2022-09-29T01:03:22.126Z,90.40
2022-09-29T01:05:56.196Z,90.23
2022-09-29T01:08:34.541Z,90.74
2022-09-29T01:11:02.891Z,90.30
2022-09-29T01:13:30.801Z,90.66
2022-09-29T01:15:57.935Z,90.41
2022-09-29T01:18:25.673Z,90.83
2022-09-29T01:21:11.348Z,90.58
2022-09-29T01:23:41.114Z,90.79
2022-09-29T01:26:40.264Z,91.09
2022-09-29T01:29:09.970Z,90.83
2022-09-29T01:31:49.391Z,90.91
2022-09-29T01:35:00.584Z,91.36
2022-09-29T01:37:48.870Z,91.15
2022-09-29T01:40:19.246Z,91.34
2022-09-29T01:42:49.713Z,91.64
2022-09-29T01:45:21.821Z,91.41
2022-09-29T01:47:57.308Z,91.64
2022-09-29T01:50:36.095Z,91.77
2022-09-29T01:53:14.554Z,91.92
2022-09-29T01:55:52.625Z,91.85
2022-09-29T01:58:45.844Z,92.39
2022-09-29T02:01:15.863Z,92.26
2022-09-29T02:03:58.277Z,92.06
2022-09-29T02:06:31.274Z,92.44
2022-09-29T02:09:02.750Z,92.09
2022-09-29T02:11:32.243Z,92.54
2022-09-29T02:14:17.109Z,92.68
2022-09-29T02:16:49.704Z,92.69
2022-09-29T02:19:21.077Z,92.86
2022-09-29T02:21:48.457Z,92.56
2022-09-29T02:24:15.971Z,92.86
2022-09-29T02:26:45.561Z,93.22
2022-09-29T02:29:13.268Z,92.96
2022-09-29T02:31:41.239Z,92.93
2022-09-29T02:34:13.320Z,93.08
2022-09-29T02:37:10.295Z,92.60
2022-09-29T02:39:48.692Z,92.94
2022-09-29T02:42:33.980Z,92.84
2022-09-29T02:45:28.899Z,93.18
2022-09-29T02:48:24.128Z,93.15
2022-09-29T02:51:38.866Z,92.90
2022-09-29T02:54:21.346Z,93.02
2022-09-29T02:57:12.884Z,92.84
2022-09-29T02:59:52.127Z,93.10
2022-09-29T03:02:27.005Z,92.83
2022-09-29T03:04:54.622Z,92.97
2022-09-29T03:07:21.954Z,92.87
2022-09-29T03:09:49.159Z,92.66
2022-09-29T03:12:16.336Z,93.39
2022-09-29T03:14:43.737Z,93.12
2022-09-29T03:17:11.037Z,93.06
2022-09-29T03:19:38.352Z,92.55
2022-09-29T03:22:05.445Z,92.81
2022-09-29T03:24:32.792Z,92.21
2022-09-29T03:26:59.949Z,92.36
2022-09-29T03:29:27.135Z,92.22
2022-09-29T03:31:54.489Z,92.41
2022-09-29T03:34:21.755Z,92.01
2022-09-29T03:36:49.005Z,92.45
2022-09-29T03:39:16.077Z,92.47
2022-09-29T03:41:43.284Z,91.90
2022-09-29T03:44:10.504Z,92.25
2022-09-29T03:46:37.791Z,92.11
2022-09-29T03:49:04.967Z,91.67
2022-09-29T03:51:32.135Z,91.85
2022-09-29T03:53:59.236Z,91.53
2022-09-29T03:56:26.433Z,91.63
2022-09-29T03:58:53.442Z,91.10
2022-09-29T04:01:20.801Z,90.95
2022-09-29T04:03:48.050Z,91.38
2022-09-29T04:06:15.243Z,91.54
2022-09-29T04:08:42.532Z,91.45
2022-09-29T04:11:09.873Z,91.00
2022-09-29T04:13:37.003Z,91.15
2022-09-29T04:16:05.961Z,91.10
2022-09-29T04:18:33.472Z,90.83
2022-09-29T04:21:06.563Z,90.97
2022-09-29T04:23:34.068Z,90.77
2022-09-29T04:26:04.070Z,91.05
2022-09-29T04:28:32.838Z,90.82
2022-09-29T04:31:00.413Z,90.90
2022-09-29T04:33:30.222Z,91.04
2022-09-29T04:35:58.973Z,90.70
2022-09-29T04:38:26.543Z,90.93
2022-09-29T04:40:54.467Z,90.55
2022-09-29T04:43:21.809Z,90.73
2022-09-29T04:45:48.926Z,90.25
2022-09-29T04:48:16.120Z,90.61
2022-09-29T04:50:43.495Z,90.13
2022-09-29T04:53:12.134Z,90.43
2022-09-29T04:55:39.493Z,90.78
2022-09-29T04:58:06.924Z,90.87
2022-09-29T05:00:35.033Z,90.36
2022-09-29T05:03:02.186Z,90.72
2022-09-29T05:05:29.508Z,91.03
2022-09-29T05:07:56.854Z,90.93
2022-09-29T05:10:24.034Z,90.98
2022-09-29T05:12:51.246Z,90.35
2022-09-29T05:15:24.834Z,90.59
2022-09-29T05:17:53.160Z,90.24
2022-09-29T05:20:20.262Z,90.85
2022-09-29T05:22:47.390Z,90.37
2022-09-29T05:25:14.972Z,90.49
2022-09-29T05:27:42.185Z,89.99
2022-09-29T05:30:09.672Z,90.45
2022-09-29T05:32:36.841Z,90.54
2022-09-29T05:35:04.303Z,90.72
2022-09-29T05:37:31.444Z,90.57
2022-09-29T05:39:58.854Z,90.74
2022-09-29T05:42:26.201Z,90.56
2022-09-29T05:44:53.655Z,90.36
2022-09-29T05:47:20.812Z,90.21
2022-09-29T05:49:47.933Z,90.12
2022-09-29T05:52:15.244Z,90.34
2022-09-29T05:54:42.622Z,90.31
2022-09-29T05:57:09.884Z,90.20
2022-09-29T05:59:37.152Z,90.06
2022-09-29T06:02:04.277Z,90.20
2022-09-29T06:04:31.587Z,90.26
2022-09-29T06:06:58.935Z,90.34
2022-09-29T06:09:26.072Z,89.98
2022-09-29T06:11:53.143Z,90.10
2022-09-29T06:14:20.609Z,90.85
2022-09-29T06:16:47.967Z,90.39
2022-09-29T06:19:15.115Z,90.36
2022-09-29T06:21:42.286Z,90.20
2022-09-29T06:24:09.765Z,90.22
2022-09-29T06:26:37.043Z,90.23
2022-09-29T06:29:04.946Z,90.26
2022-09-29T06:31:32.460Z,89.88
2022-09-29T06:34:01.119Z,90.04
2022-09-29T06:36:59.716Z,89.36
2022-09-29T06:39:27.514Z,89.51
2022-09-29T06:41:56.642Z,89.32
2022-09-29T06:44:26.781Z,89.31
2022-09-29T06:46:56.046Z,89.23
2022-09-29T06:49:24.355Z,88.94
2022-09-29T06:51:52.146Z,88.71
2022-09-29T06:54:22.064Z,88.30
2022-09-29T06:56:53.590Z,87.96
2022-09-29T06:59:21.326Z,88.56
2022-09-29T07:01:51.246Z,88.34
2022-09-29T07:04:20.599Z,88.06
2022-09-29T07:06:48.504Z,88.45
2022-09-29T07:09:18.613Z,87.66
2022-09-29T07:11:48.259Z,87.73
2022-09-29T07:14:20.486Z,87.65
2022-09-29T07:16:48.613Z,87.37
2022-09-29T07:19:18.588Z,87.18
2022-09-29T07:21:46.813Z,86.14
2022-09-29T07:24:14.094Z,86.47
2022-09-29T07:26:41.494Z,86.13
2022-09-29T07:29:14.899Z,86.11
2022-09-29T07:31:50.914Z,86.00
2022-09-29T07:34:20.895Z,86.49
2022-09-29T07:36:48.153Z,85.72
2022-09-29T07:39:15.370Z,85.86
2022-09-29T07:41:42.628Z,86.07
2022-09-29T07:44:09.823Z,85.86
2022-09-29T07:46:37.070Z,85.64
2022-09-29T07:49:04.539Z,85.22
2022-09-29T07:51:31.963Z,84.77
2022-09-29T07:54:04.484Z,84.64
2022-09-29T07:56:33.302Z,84.59
2022-09-29T07:59:02.615Z,84.57
2022-09-29T08:01:30.543Z,84.32
2022-09-29T08:03:57.920Z,84.04
2022-09-29T08:06:26.970Z,83.69
2022-09-29T08:09:03.290Z,82.97
2022-09-29T08:11:33.472Z,82.40
2022-09-29T08:14:01.844Z,81.07
2022-09-29T08:16:29.408Z,80.49
2022-09-29T08:18:56.698Z,79.55
2022-09-29T08:21:23.945Z,78.79
2022-09-29T08:23:51.596Z,77.83
2022-09-29T08:26:35.552Z,79.16
2022-09-29T08:29:08.957Z,77.37
2022-09-29T08:31:40.576Z,77.87
2022-09-29T08:34:08.084Z,77.40
2022-09-29T08:36:36.143Z,77.75
2022-09-29T08:39:04.209Z,77.62
2022-09-29T08:41:54.524Z,76.86
2022-09-29T08:44:39.164Z,77.89
2022-09-29T08:47:45.600Z,77.13
2022-09-29T08:50:25.593Z,77.79
2022-09-29T08:52:57.568Z,78.24
2022-09-29T08:55:48.447Z,77.97
2022-09-29T08:58:17.284Z,78.32
2022-09-29T09:00:59.556Z,79.04
2022-09-29T09:03:39.687Z,79.57
2022-09-29T09:06:12.594Z,79.51
2022-09-29T09:09:07.711Z,79.03
2022-09-29T09:12:07.384Z,79.04
2022-09-29T09:14:47.005Z,77.79
2022-09-29T09:17:16.925Z,78.64
2022-09-29T09:19:56.419Z,78.54
2022-09-29T09:22:26.256Z,78.32
2022-09-29T09:25:13.824Z,78.69
2022-09-29T09:27:47.207Z,78.99
2022-09-29T09:30:18.467Z,78.30
2022-09-29T09:33:03.284Z,78.85
2022-09-29T09:35:47.325Z,77.41
2022-09-29T09:38:26.514Z,77.65
2022-09-29T09:40:56.709Z,77.94
2022-09-29T09:43:29.807Z,77.01
2022-09-29T09:46:04.202Z,76.57
2022-09-29T09:48:38.308Z,76.56
2022-09-29T09:51:31.874Z,75.71
2022-09-29T09:54:04.406Z,76.94
2022-09-29T09:56:44.107Z,76.50
2022-09-29T09:59:35.384Z,76.81
2022-09-29T10:02:03.069Z,76.46
2022-09-29T10:04:30.505Z,76.27
2022-09-29T10:06:57.772Z,77.21
2022-09-29T10:09:25.164Z,76.38
2022-09-29T10:11:52.516Z,75.83
2022-09-29T10:14:28.286Z,76.26
2022-09-29T10:17:07.383Z,76.70
2022-09-29T10:19:54.541Z,76.64
2022-09-29T10:22:22.657Z,76.17
2022-09-29T10:24:55.842Z,75.86
2022-09-29T10:27:27.853Z,75.23
2022-09-29T10:29:57.114Z,75.09
2022-09-29T10:32:36.796Z,75.02
2022-09-29T10:35:10.385Z,74.85
2022-09-29T10:37:41.934Z,75.51
2022-09-29T10:40:09.053Z,75.28
2022-09-29T10:42:39.155Z,74.29
2022-09-29T10:45:26.186Z,73.71
2022-09-29T10:47:59.891Z,73.31
2022-09-29T10:50:50.107Z,73.44
2022-09-29T10:53:38.509Z,73.59
2022-09-29T10:56:32.137Z,74.00
2022-09-29T10:59:05.655Z,73.90
2022-09-29T11:01:43.933Z,73.94
2022-09-29T11:04:35.361Z,74.19
2022-09-29T11:07:11.404Z,74.11
2022-09-29T11:09:44.496Z,73.83
2022-09-29T11:12:32.273Z,73.87
2022-09-29T11:15:01.521Z,74.67
2022-09-29T11:17:30.209Z,74.34
2022-09-29T11:20:03.605Z,74.76
2022-09-29T11:22:50.792Z,74.90
2022-09-29T11:25:39.729Z,73.35
2022-09-29T11:28:38.044Z,74.46
2022-09-29T11:31:12.385Z,73.88
2022-09-29T11:33:52.753Z,73.86
2022-09-29T11:36:24.043Z,73.90
2022-09-29T11:39:13.129Z,73.20
2022-09-29T11:42:04.754Z,72.52
2022-09-29T11:44:40.797Z,72.56
2022-09-29T11:47:29.148Z,71.90
2022-09-29T11:50:24.179Z,71.81
2022-09-29T11:53:22.934Z,71.34
2022-09-29T11:55:53.247Z,71.20
2022-09-29T11:58:46.606Z,70.92
2022-09-29T12:01:24.113Z,70.82
2022-09-29T12:03:54.403Z,70.45
2022-09-29T12:06:33.603Z,70.56
2022-09-29T12:09:24.274Z,69.22
2022-09-29T12:12:18.956Z,69.69
2022-09-29T12:15:05.203Z,69.33
2022-09-29T12:17:37.464Z,68.57
2022-09-29T12:20:18.791Z,67.94
2022-09-29T12:22:48.814Z,67.54
2022-09-29T12:25:19.427Z,67.49
2022-09-29T12:27:50.417Z,67.65
2022-09-29T12:30:30.465Z,67.73
2022-09-29T12:33:02.575Z,67.50
2022-09-29T12:35:39.401Z,66.88
2022-09-29T12:38:16.265Z,66.90
2022-09-29T12:41:02.216Z,67.44
2022-09-29T12:43:59.710Z,68.03
2022-09-29T12:46:43.866Z,69.01
2022-09-29T12:49:16.885Z,68.72
2022-09-29T12:51:50.259Z,69.24
2022-09-29T12:54:29.012Z,68.79
2022-09-29T12:57:16.335Z,67.75
2022-09-29T13:00:03.825Z,67.91
2022-09-29T13:02:56.405Z,67.97
2022-09-29T13:05:51.254Z,67.33
2022-09-29T13:08:33.234Z,66.70
2022-09-29T13:11:22.583Z,68.03
2022-09-29T13:13:52.987Z,67.48
2022-09-29T13:16:32.046Z,67.89
2022-09-29T13:19:52.891Z,68.16
2022-09-29T13:22:39.047Z,68.65
2022-09-29T13:25:12.063Z,69.09
2022-09-29T13:27:45.563Z,69.50
2022-09-29T13:30:13.785Z,70.09
2022-09-29T13:32:45.298Z,70.30
2022-09-29T13:35:17.703Z,70.85
2022-09-29T13:37:50.023Z,70.10
2022-09-29T13:40:21.555Z,70.07
2022-09-29T13:42:51.835Z,69.99
2022-09-29T13:45:21.756Z,70.66
2022-09-29T13:47:51.964Z,70.58
2022-09-29T13:50:49.625Z,70.07
2022-09-29T13:53:20.113Z,71.11
2022-09-29T13:55:51.234Z,70.64
2022-09-29T13:58:39.429Z,71.24
2022-09-29T14:01:09.441Z,72.13
2022-09-29T14:03:40.886Z,72.72
2022-09-29T14:09:18.629Z,71.98
2022-09-29T14:11:52.164Z,71.58
2022-09-29T14:14:30.269Z,70.56
2022-09-29T14:17:16.169Z,70.67
2022-09-29T14:19:43.296Z,70.48
2022-09-29T14:22:32.579Z,70.19
2022-09-29T14:25:09.985Z,69.56
2022-09-29T14:27:49.464Z,68.84
2022-09-29T14:30:19.118Z,68.77
2022-09-29T14:32:47.066Z,68.45
2022-09-29T14:35:20.229Z,68.64
2022-09-29T14:37:58.393Z,67.81
2022-09-29T14:40:28.502Z,67.44
2022-09-29T14:43:14.502Z,68.20
2022-09-29T14:46:19.124Z,68.13
2022-09-29T14:49:47.626Z,67.70
2022-09-29T14:52:52.342Z,67.83
2022-09-29T14:55:38.516Z,67.20
2022-09-29T14:58:29.621Z,68.58
2022-09-29T15:01:09.754Z,69.29
2022-09-29T15:03:49.392Z,69.66
2022-09-29T15:06:22.164Z,69.54
2022-09-29T15:09:00.857Z,67.94
2022-09-29T15:11:38.502Z,68.54
2022-09-29T15:14:25.027Z,67.42
2022-09-29T15:16:55.211Z,68.25
2022-09-29T15:19:41.163Z,68.71
2022-09-29T15:22:35.301Z,69.89
2022-09-29T15:25:32.463Z,70.82
2022-09-29T15:28:05.857Z,71.01
2022-09-29T15:30:33.854Z,71.14
2022-09-29T15:33:24.524Z,72.31
2022-09-29T15:35:57.092Z,71.84
2022-09-29T15:38:24.323Z,71.99
2022-09-29T15:40:56.898Z,72.72
2022-09-29T15:43:28.672Z,73.13
2022-09-29T15:46:02.924Z,72.63
2022-09-29T15:48:31.686Z,72.48
2022-09-29T15:50:59.335Z,73.00
2022-09-29T15:53:28.113Z,73.16
2022-09-29T15:55:56.125Z,72.56
2022-09-29T15:58:25.922Z,72.54
2022-09-29T16:01:14.517Z,72.76
2022-09-29T16:03:58.050Z,72.55
2022-09-29T16:06:33.414Z,72.22
2022-09-29T16:09:04.445Z,72.71
2022-09-29T16:11:35.213Z,72.96
2022-09-29T16:14:11.907Z,73.48
2022-09-29T16:16:46.085Z,73.42
2022-09-29T16:19:22.067Z,74.19
2022-09-29T16:22:05.215Z,74.13
2022-09-29T16:24:39.472Z,74.18
2022-09-29T16:27:41.532Z,74.77
2022-09-29T16:30:33.540Z,74.39
2022-09-29T16:33:14.588Z,74.79
2022-09-29T16:35:51.093Z,75.25
2022-09-29T16:38:40.219Z,74.82
2022-09-29T16:41:10.414Z,75.08
2022-09-29T16:43:38.527Z,76.13
2022-09-29T16:46:07.649Z,77.01
2022-09-29T16:48:42.893Z,77.23
2022-09-29T16:51:37.654Z,77.99
2022-09-29T16:54:04.036Z,78.42
2022-09-29T16:56:36.914Z,79.28
2022-09-29T16:59:12.659Z,79.10
2022-09-29T17:01:41.556Z,79.52
2022-09-29T17:04:10.474Z,79.39
2022-09-29T17:06:38.099Z,80.23
2022-09-29T17:09:05.957Z,80.39
2022-09-29T17:11:33.309Z,80.15
2022-09-29T17:14:00.522Z,80.36
2022-09-29T17:16:29.471Z,80.47
2022-09-29T17:18:57.820Z,80.53
2022-09-29T17:21:25.124Z,80.44
2022-09-29T17:23:52.509Z,80.71
2022-09-29T17:26:58.022Z,80.95
2022-09-29T17:29:25.685Z,81.20
2022-09-29T17:31:53.181Z,81.02
2022-09-29T17:34:25.768Z,81.49
2022-09-29T17:36:53.463Z,81.88
2022-09-29T17:39:20.766Z,81.99
2022-09-29T17:41:49.575Z,82.02
2022-09-29T17:44:16.869Z,81.76
2022-09-29T17:46:44.987Z,81.37
2022-09-29T17:49:14.263Z,81.85
2022-09-29T17:51:41.513Z,81.76
2022-09-29T17:54:08.683Z,81.76
2022-09-29T17:56:41.349Z,81.74
2022-09-29T17:59:10.412Z,81.53
2022-09-29T18:01:38.581Z,81.58
2022-09-29T18:04:08.023Z,81.80
2022-09-29T18:06:37.853Z,82.17
2022-09-29T18:09:18.393Z,82.08
2022-09-29T18:11:45.863Z,82.39
2022-09-29T18:14:13.173Z,82.20
2022-09-29T18:16:40.503Z,82.31
2022-09-29T18:19:19.169Z,82.81
2022-09-29T18:21:46.686Z,82.54
2022-09-29T18:24:14.366Z,82.25
2022-09-29T18:26:45.463Z,82.27
2022-09-29T18:29:17.568Z,82.34
2022-09-29T18:31:45.703Z,82.41
2022-09-29T18:34:16.780Z,82.04
2022-09-29T18:36:47.131Z,82.51
2022-09-29T18:39:14.390Z,82.38
2022-09-29T18:41:42.024Z,82.13
2022-09-29T18:44:15.553Z,81.95
2022-09-29T18:46:44.699Z,82.00
2022-09-29T18:49:13.614Z,82.52
2022-09-29T18:51:40.833Z,82.37
2022-09-29T18:54:08.606Z,82.34
2022-09-29T18:56:35.947Z,82.21
2022-09-29T18:59:05.855Z,82.08
2022-09-29T19:01:33.351Z,82.03
2022-09-29T19:04:00.927Z,82.30
2022-09-29T19:06:29.095Z,82.63
2022-09-29T19:08:56.622Z,82.48
2022-09-29T19:11:26.186Z,82.58
2022-09-29T19:13:56.520Z,82.74
2022-09-29T19:16:24.515Z,83.01
2022-09-29T19:18:51.849Z,82.78
2022-09-29T19:21:19.084Z,83.13
2022-09-29T19:23:49.055Z,82.58
2022-09-29T19:26:18.888Z,82.77
2022-09-29T19:28:48.288Z,83.01
2022-09-29T19:31:19.714Z,82.79
2022-09-29T19:33:47.325Z,83.36
2022-09-29T19:36:18.019Z,83.99
2022-09-29T19:38:46.269Z,83.37
2022-09-29T19:41:25.063Z,83.62
2022-09-29T19:43:52.812Z,83.53
2022-09-29T19:46:21.105Z,83.18
2022-09-29T19:48:48.746Z,83.28
2022-09-29T19:51:35.556Z,83.22
2022-09-29T19:54:11.039Z,83.62
2022-09-29T19:56:43.772Z,83.52
2022-09-29T19:59:15.787Z,82.63
2022-09-29T20:01:45.665Z,83.47
2022-09-29T20:04:14.734Z,83.47
2022-09-29T20:06:42.573Z,83.19
2022-09-29T20:09:10.141Z,83.69
2022-09-29T20:11:38.274Z,83.71
2022-09-29T20:14:07.589Z,83.60
2022-09-29T20:16:37.483Z,83.72
2022-09-29T20:19:06.482Z,83.60
2022-09-29T20:21:33.619Z,83.48
2022-09-29T20:24:01.766Z,83.77
2022-09-29T20:26:29.036Z,83.83
2022-09-29T20:28:56.172Z,83.25
2022-09-29T20:31:23.904Z,83.25
2022-09-29T20:33:52.206Z,82.97
2022-09-29T20:36:19.440Z,83.42
2022-09-29T20:38:51.212Z,84.24
2022-09-29T20:41:18.468Z,83.71
2022-09-29T20:43:51.904Z,84.41
2022-09-29T20:46:19.412Z,84.58
2022-09-29T20:48:48.966Z,84.08
2022-09-29T20:51:16.531Z,84.19
2022-09-29T20:53:50.092Z,84.09
2022-09-29T20:56:18.142Z,83.91
2022-09-29T20:58:47.561Z,85.05
2022-09-29T21:01:21.436Z,84.71
2022-09-29T21:03:54.596Z,85.39
2022-09-29T21:06:24.912Z,85.73
2022-09-29T21:08:52.103Z,85.98
2022-09-29T21:11:19.684Z,86.09
2022-09-29T21:13:51.905Z,86.37
2022-09-29T21:16:19.751Z,86.43
2022-09-29T21:18:47.213Z,85.73
2022-09-29T21:21:14.704Z,84.64
2022-09-29T21:23:43.107Z,84.15
2022-09-29T21:26:28.715Z,84.23
2022-09-29T21:28:58.065Z,84.82
2022-09-29T21:31:27.679Z,85.24
2022-09-29T21:33:58.083Z,85.21
2022-09-29T21:36:26.117Z,85.85
2022-09-29T21:38:53.937Z,85.69
2022-09-29T21:41:23.800Z,86.31
2022-09-29T21:43:53.965Z,86.21
2022-09-29T21:46:23.598Z,85.82
2022-09-29T21:48:56.038Z,85.34
2022-09-29T21:51:29.569Z,85.06
2022-09-29T21:54:01.805Z,84.87
2022-09-29T21:56:32.227Z,85.65
2022-09-29T21:58:59.105Z,84.87
2022-09-29T22:01:27.739Z,85.37
2022-09-29T22:03:56.903Z,85.15
2022-09-29T22:06:26.617Z,85.37
2022-09-29T22:08:54.908Z,84.44
2022-09-29T22:11:27.469Z,83.87
2022-09-29T22:13:57.186Z,83.90
2022-09-29T22:16:29.385Z,83.39
2022-09-29T22:19:21.398Z,84.10
2022-09-29T22:21:46.123Z,84.00
2022-09-29T22:24:13.534Z,84.30
2022-09-29T22:26:41.513Z,84.45
2022-09-29T22:29:08.684Z,83.91
2022-09-29T22:31:35.876Z,84.15
2022-09-29T22:34:05.453Z,84.12
2022-09-29T22:36:34.798Z,84.37
2022-09-29T22:39:02.848Z,84.49
2022-09-29T22:41:30.418Z,83.97
2022-09-29T22:43:59.357Z,83.47
2022-09-29T22:46:29.275Z,84.08
2022-09-29T22:48:56.942Z,84.23
2022-09-29T22:51:24.453Z,84.54
2022-09-29T22:53:52.487Z,85.73
2022-09-29T22:56:22.418Z,84.99
2022-09-29T22:58:50.183Z,84.78
2022-09-29T23:01:20.104Z,85.02
2022-09-29T23:03:48.150Z,84.89
2022-09-29T23:06:15.607Z,85.22
2022-09-29T23:08:42.803Z,85.34
2022-09-29T23:11:19.569Z,85.53
2022-09-29T23:13:47.573Z,84.59
2022-09-29T23:16:16.756Z,84.85
2022-09-29T23:18:45.709Z,84.83
2022-09-29T23:21:19.717Z,84.90
2022-09-29T23:24:01.485Z,84.60
2022-09-29T23:26:30.466Z,84.45
2022-09-29T23:28:58.754Z,84.68
2022-09-29T23:31:27.129Z,84.25
2022-09-29T23:33:56.315Z,84.63
2022-09-29T23:36:25.836Z,84.13
2022-09-29T23:39:11.271Z,83.75
2022-09-29T23:41:42.675Z,83.70
2022-09-29T23:44:11.826Z,83.93
2022-09-29T23:46:40.219Z,84.21
2022-09-29T23:49:10.535Z,83.13
2022-09-29T23:51:42.534Z,83.64
2022-09-29T23:54:12.355Z,83.58
2022-09-29T23:56:40.618Z,83.83
2022-09-29T23:59:07.928Z,83.68
